Terminal Aerodrome Forecast
Issued by NWS

Home | Current Version | Previous Version | Text Only | Print | Product List | Glossary On
Versions: 1 2 3 4 5 6 7 8 9 10 11 12 13 14 15 16 17 18
753
FTUS43 KMQT 190526
TAFSAW
TAF
KSAW 190526Z 1906/2006 00000KT P6SM BKN025
     FM190700 00000KT P6SM BKN040
     FM191500 21009KT P6SM BKN200
     FM191800 21010KT P6SM OVC150 WS010/27040KT
     FM200100 22007KT P6SM BKN200=

USA.gov is the U.S. government's official web portal to all federal, state and local government web resources and services.